createdAt,value
2022-10-17T00:00:55.747Z,0
2022-10-17T00:02:11.940Z,0
2022-10-17T00:03:28.119Z,0
2022-10-17T00:04:44.316Z,0
2022-10-17T00:06:00.116Z,0
2022-10-17T00:07:15.705Z,0
2022-10-17T00:08:31.904Z,0
2022-10-17T00:09:48.079Z,0
2022-10-17T00:11:04.269Z,0
2022-10-17T00:12:20.070Z,0
2022-10-17T00:13:36.264Z,0
2022-10-17T00:14:52.450Z,0
2022-10-17T00:16:08.634Z,0
2022-10-17T00:17:25.228Z,0
2022-10-17T00:18:41.411Z,0
2022-10-17T00:19:57.598Z,0
2022-10-17T00:21:13.395Z,0
2022-10-17T00:22:29.967Z,0
2022-10-17T00:23:44.789Z,0
2022-10-17T00:25:01.370Z,0
2022-10-17T00:26:17.555Z,0
2022-10-17T00:27:33.751Z,0
2022-10-17T00:28:49.543Z,0
2022-10-17T00:30:06.115Z,0
2022-10-17T00:31:22.324Z,0
2022-10-17T00:32:38.507Z,0
2022-10-17T00:33:54.691Z,0
2022-10-17T00:35:10.874Z,0
2022-10-17T00:36:26.675Z,0
2022-10-17T00:37:42.854Z,0
2022-10-17T00:38:59.037Z,0
2022-10-17T00:40:14.654Z,0
2022-10-17T00:41:30.835Z,0
2022-10-17T00:42:47.023Z,0
2022-10-17T00:44:02.816Z,0
2022-10-17T00:45:18.998Z,0
2022-10-17T00:46:35.604Z,0
2022-10-17T00:47:51.776Z,0
2022-10-17T00:49:07.975Z,0
2022-10-17T00:50:23.764Z,0
2022-10-17T00:51:39.949Z,0
2022-10-17T00:52:56.533Z,0
2022-10-17T00:54:12.735Z,0
2022-10-17T00:55:28.942Z,0
2022-10-17T00:56:43.718Z,0
2022-10-17T00:58:00.303Z,0
2022-10-17T00:59:16.085Z,0
2022-10-17T01:00:32.679Z,0
2022-10-17T01:01:48.870Z,0
2022-10-17T01:03:04.669Z,0
2022-10-17T01:04:21.252Z,0
2022-10-17T01:05:37.452Z,0
2022-10-17T01:06:53.216Z,0
2022-10-17T01:08:09.817Z,0
2022-10-17T01:09:26.004Z,0
2022-10-17T01:10:42.198Z,0
2022-10-17T01:11:57.974Z,0
2022-10-17T01:13:13.601Z,0
2022-10-17T01:14:29.788Z,0
2022-10-17T01:15:45.964Z,0
2022-10-17T01:17:01.746Z,0
2022-10-17T01:18:17.930Z,0
2022-10-17T01:19:34.128Z,0
2022-10-17T01:20:50.723Z,0
2022-10-17T01:22:06.910Z,0
2022-10-17T01:23:23.113Z,0
2022-10-17T01:24:38.880Z,0
2022-10-17T01:25:55.478Z,0
2022-10-17T01:27:11.678Z,0
2022-10-17T01:28:27.438Z,0
2022-10-17T01:29:43.058Z,0
2022-10-17T01:30:59.243Z,0
2022-10-17T01:32:15.433Z,0
2022-10-17T01:33:31.638Z,0
2022-10-17T01:34:47.812Z,0
2022-10-17T01:36:04.006Z,0
2022-10-17T01:37:20.191Z,0
2022-10-17T01:38:35.975Z,0
2022-10-17T01:39:52.578Z,0
2022-10-17T01:41:08.343Z,0
2022-10-17T01:42:24.944Z,0
2022-10-17T01:43:41.137Z,0
2022-10-17T01:44:56.929Z,0
2022-10-17T01:46:12.132Z,0
2022-10-17T01:47:28.718Z,0
2022-10-17T01:48:44.914Z,0
2022-10-17T01:50:01.103Z,0
2022-10-17T01:51:17.300Z,0
2022-10-17T01:52:33.490Z,0
2022-10-17T01:53:49.676Z,0
2022-10-17T01:55:05.866Z,0
2022-10-17T01:56:21.624Z,0
2022-10-17T01:57:37.817Z,0
2022-10-17T01:58:54.430Z,0
2022-10-17T02:00:10.207Z,0
2022-10-17T02:01:26.397Z,0
2022-10-17T02:02:42.018Z,0
2022-10-17T02:03:57.792Z,0
2022-10-17T02:05:14.396Z,0
2022-10-17T02:06:30.153Z,0
2022-10-17T02:07:46.773Z,0
2022-10-17T02:09:02.956Z,0
2022-10-17T02:10:19.146Z,0
2022-10-17T02:11:35.333Z,0
2022-10-17T02:12:51.107Z,0
2022-10-17T02:14:07.705Z,0
2022-10-17T02:15:23.483Z,0
2022-10-17T02:16:40.095Z,0
2022-10-17T02:17:55.849Z,0
2022-10-17T02:19:11.481Z,0
2022-10-17T02:20:27.675Z,0
2022-10-17T02:21:43.856Z,0
2022-10-17T02:22:59.637Z,0
2022-10-17T02:24:16.239Z,0
2022-10-17T02:25:32.431Z,0
2022-10-17T02:26:47.646Z,0
2022-10-17T02:28:03.846Z,0
2022-10-17T02:29:20.027Z,0
2022-10-17T02:30:35.794Z,0
2022-10-17T02:31:52.394Z,0
2022-10-17T02:33:08.579Z,0
2022-10-17T02:34:24.000Z,0
2022-10-17T02:35:40.967Z,0
2022-10-17T02:36:57.158Z,0
2022-10-17T02:38:13.347Z,0
2022-10-17T02:39:29.527Z,0
2022-10-17T02:40:45.726Z,0
2022-10-17T02:42:01.476Z,0
2022-10-17T02:43:16.685Z,0
2022-10-17T02:44:32.885Z,0
2022-10-17T02:45:49.501Z,0
2022-10-17T02:47:05.263Z,0
2022-10-17T02:48:21.872Z,0
2022-10-17T02:49:38.057Z,0
2022-10-17T02:50:53.815Z,0
2022-10-17T02:52:10.452Z,0
2022-10-17T02:53:26.208Z,0
2022-10-17T02:54:42.821Z,0
2022-10-17T02:55:58.575Z,0
2022-10-17T02:57:14.779Z,0
2022-10-17T02:58:31.382Z,0
2022-10-17T02:59:46.593Z,0
2022-10-17T03:01:02.356Z,0
2022-10-17T03:02:18.966Z,0
2022-10-17T03:03:34.728Z,0
2022-10-17T03:04:51.348Z,0
2022-10-17T03:06:07.544Z,0
2022-10-17T03:07:23.724Z,0
2022-10-17T03:08:39.484Z,0
2022-10-17T03:09:56.103Z,0
2022-10-17T03:11:11.873Z,0
2022-10-17T03:12:28.478Z,0
2022-10-17T03:13:44.680Z,0
2022-10-17T03:15:00.871Z,0
2022-10-17T03:16:15.631Z,0
2022-10-17T03:17:32.262Z,0
2022-10-17T03:18:48.443Z,0
2022-10-17T03:20:04.628Z,0
2022-10-17T03:21:20.825Z,0
2022-10-17T03:22:37.007Z,0
2022-10-17T03:23:53.203Z,0
2022-10-17T03:25:09.384Z,0
2022-10-17T03:26:25.586Z,0
2022-10-17T03:27:41.325Z,0
2022-10-17T03:28:57.527Z,0
2022-10-17T03:30:14.152Z,0
2022-10-17T03:31:30.342Z,0
2022-10-17T03:32:45.536Z,0
2022-10-17T03:34:01.734Z,0
2022-10-17T03:35:17.476Z,0
2022-10-17T03:36:33.665Z,0
2022-10-17T03:37:49.867Z,0
2022-10-17T03:39:06.061Z,0
2022-10-17T03:40:22.486Z,0
2022-10-17T03:41:38.668Z,0
2022-10-17T03:42:54.860Z,0
2022-10-17T03:44:11.064Z,0
2022-10-17T03:45:27.247Z,0
2022-10-17T03:46:43.437Z,0
2022-10-17T03:47:59.363Z,0
2022-10-17T03:49:14.828Z,0
2022-10-17T03:50:30.757Z,0
2022-10-17T03:51:47.214Z,0
2022-10-17T03:53:03.392Z,0
2022-10-17T03:54:19.339Z,0
2022-10-17T03:55:35.520Z,0
2022-10-17T03:56:51.710Z,0
2022-10-17T03:58:08.147Z,0
2022-10-17T03:59:24.332Z,0
2022-10-17T04:00:40.538Z,0
2022-10-17T04:01:56.475Z,0
2022-10-17T04:03:12.916Z,0
2022-10-17T04:04:28.838Z,0
2022-10-17T04:05:44.307Z,0
2022-10-17T04:07:00.486Z,0
2022-10-17T04:08:16.437Z,0
2022-10-17T04:09:32.608Z,0
2022-10-17T04:10:49.066Z,0
2022-10-17T04:12:05.250Z,0
2022-10-17T04:13:21.190Z,0
2022-10-17T04:14:37.635Z,0
2022-10-17T04:15:53.564Z,0
2022-10-17T04:17:09.995Z,0
2022-10-17T04:18:26.193Z,0
2022-10-17T04:19:42.136Z,0
2022-10-17T04:20:58.318Z,0
2022-10-17T04:22:13.786Z,0
2022-10-17T04:23:29.968Z,0
2022-10-17T04:24:45.892Z,0
2022-10-17T04:26:02.341Z,0
2022-10-17T04:27:18.543Z,0
2022-10-17T04:28:34.716Z,0
2022-10-17T04:29:50.912Z,0
2022-10-17T04:31:07.101Z,0
2022-10-17T04:32:23.040Z,0
2022-10-17T04:33:39.482Z,0
2022-10-17T04:34:55.676Z,0
2022-10-17T04:36:11.860Z,0
2022-10-17T04:37:27.776Z,0
2022-10-17T04:38:42.982Z,0
2022-10-17T04:39:59.170Z,0
2022-10-17T04:41:15.372Z,0
2022-10-17T04:42:31.816Z,0
2022-10-17T04:43:48.003Z,0
2022-10-17T04:45:04.206Z,0
2022-10-17T04:46:20.382Z,0
2022-10-17T04:47:36.314Z,0
2022-10-17T04:48:52.757Z,0
2022-10-17T04:50:08.955Z,0
2022-10-17T04:51:25.138Z,0
2022-10-17T04:52:41.067Z,0
2022-10-17T04:53:57.518Z,0
2022-10-17T04:55:12.468Z,0
2022-10-17T04:56:28.907Z,0
2022-10-17T04:57:45.098Z,0
2022-10-17T04:59:01.291Z,0
2022-10-17T05:00:17.476Z,0
2022-10-17T05:01:33.400Z,0
2022-10-17T05:02:49.590Z,0
2022-10-17T05:04:05.778Z,0
2022-10-17T05:05:22.244Z,0
2022-10-17T05:06:38.419Z,0
2022-10-17T05:07:54.619Z,0
2022-10-17T05:09:10.802Z,0
2022-10-17T05:10:26.982Z,0
2022-10-17T05:11:42.201Z,0
2022-10-17T05:12:58.122Z,4
2022-10-17T05:14:14.577Z,4
2022-10-17T05:15:30.772Z,4
2022-10-17T05:16:46.958Z,4
2022-10-17T05:18:03.152Z,4
2022-10-17T05:19:19.322Z,8
2022-10-17T05:20:35.247Z,8
2022-10-17T05:21:51.700Z,12
2022-10-17T05:23:07.622Z,12
2022-10-17T05:24:23.805Z,12
2022-10-17T05:25:40.004Z,16
2022-10-17T05:26:56.186Z,20
2022-10-17T05:28:11.665Z,24
2022-10-17T05:29:27.581Z,28
2022-10-17T05:30:44.044Z,36
2022-10-17T05:32:00.233Z,40
2022-10-17T05:33:16.155Z,44
2022-10-17T05:34:32.615Z,48
2022-10-17T05:35:48.801Z,52
2022-10-17T05:37:05.000Z,60
2022-10-17T05:38:20.901Z,72
2022-10-17T05:39:37.375Z,84
2022-10-17T05:40:53.286Z,92
2022-10-17T05:42:09.747Z,104
2022-10-17T05:43:25.937Z,112
2022-10-17T05:44:41.151Z,120
2022-10-17T05:45:57.324Z,128
2022-10-17T05:47:13.521Z,144
2022-10-17T05:48:29.438Z,156
2022-10-17T05:49:45.907Z,176
2022-10-17T05:51:02.088Z,196
2022-10-17T05:52:18.271Z,212
2022-10-17T05:53:34.463Z,232
2022-10-17T05:54:50.663Z,248
2022-10-17T05:56:06.841Z,264
2022-10-17T05:57:23.023Z,272
2022-10-17T05:58:39.224Z,284
2022-10-17T05:59:55.408Z,296
2022-10-17T06:01:10.614Z,308
2022-10-17T06:02:26.798Z,320
2022-10-17T06:03:42.975Z,328
2022-10-17T06:04:59.184Z,340
2022-10-17T06:06:15.373Z,348
2022-10-17T06:07:31.555Z,364
2022-10-17T06:08:47.752Z,380
2022-10-17T06:10:03.932Z,392
2022-10-17T06:11:20.136Z,404
2022-10-17T06:12:36.303Z,412
2022-10-17T06:13:52.508Z,420
2022-10-17T06:15:08.696Z,420
2022-10-17T06:16:24.880Z,424
2022-10-17T06:17:40.095Z,440
2022-10-17T06:18:56.254Z,448
2022-10-17T06:20:12.459Z,464
2022-10-17T06:21:28.652Z,472
2022-10-17T06:22:44.820Z,492
2022-10-17T06:24:01.041Z,500
2022-10-17T06:25:17.224Z,516
2022-10-17T06:26:33.388Z,524
2022-10-17T06:27:49.600Z,540
2022-10-17T06:29:05.785Z,556
2022-10-17T06:30:21.987Z,576
2022-10-17T06:31:38.159Z,600
2022-10-17T06:32:54.348Z,632
2022-10-17T06:34:09.549Z,664
2022-10-17T06:35:25.756Z,712
2022-10-17T06:36:41.915Z,752
2022-10-17T06:37:58.120Z,776
2022-10-17T06:39:14.312Z,784
2022-10-17T06:40:30.505Z,776
2022-10-17T06:41:45.698Z,752
2022-10-17T06:43:01.906Z,724
2022-10-17T06:44:18.107Z,684
2022-10-17T06:45:34.264Z,660
2022-10-17T06:46:50.458Z,624
2022-10-17T06:48:06.000Z,620
2022-10-17T06:49:22.847Z,632
2022-10-17T06:50:39.042Z,672
2022-10-17T06:51:55.240Z,672
2022-10-17T06:53:11.402Z,656
2022-10-17T06:54:27.602Z,644
2022-10-17T06:55:43.800Z,660
2022-10-17T06:56:59.972Z,684
2022-10-17T06:58:15.169Z,732
2022-10-17T06:59:31.366Z,784
2022-10-17T07:00:47.560Z,796
2022-10-17T07:02:03.751Z,792
2022-10-17T07:03:19.941Z,816
2022-10-17T07:04:36.119Z,856
2022-10-17T07:05:52.326Z,880
2022-10-17T07:07:08.521Z,892
2022-10-17T07:08:24.703Z,912
2022-10-17T07:09:40.900Z,944
2022-10-17T07:10:57.048Z,1024
2022-10-17T07:12:13.277Z,1044
2022-10-17T07:13:29.457Z,1064
2022-10-17T07:14:44.674Z,1060
2022-10-17T07:16:00.848Z,1084
2022-10-17T07:17:17.047Z,1040
2022-10-17T07:18:33.224Z,1032
2022-10-17T07:19:49.397Z,1032
2022-10-17T07:21:05.615Z,964
2022-10-17T07:22:21.805Z,936
2022-10-17T07:23:37.968Z,888
2022-10-17T07:24:54.172Z,832
2022-10-17T07:26:10.362Z,784
2022-10-17T07:27:26.535Z,764
2022-10-17T07:28:42.749Z,768
2022-10-17T07:29:58.937Z,744
2022-10-17T07:31:14.139Z,724
2022-10-17T07:32:30.319Z,708
2022-10-17T07:33:46.516Z,716
2022-10-17T07:35:02.704Z,720
2022-10-17T07:36:18.904Z,772
2022-10-17T07:37:35.045Z,840
2022-10-17T07:38:51.242Z,884
2022-10-17T07:40:07.422Z,888
2022-10-17T07:41:23.646Z,924
2022-10-17T07:42:39.797Z,960
2022-10-17T07:43:56.022Z,976
2022-10-17T07:45:12.209Z,976
2022-10-17T07:46:28.380Z,976
2022-10-17T07:47:43.573Z,964
2022-10-17T07:48:59.761Z,948
2022-10-17T07:50:15.992Z,976
2022-10-17T07:51:32.186Z,984
2022-10-17T07:52:48.377Z,984
2022-10-17T07:54:04.556Z,1032
2022-10-17T07:55:20.750Z,1044
2022-10-17T07:56:36.938Z,1064
2022-10-17T07:59:09.320Z,1052
2022-10-17T08:00:25.496Z,1028
2022-10-17T08:01:41.662Z,996
2022-10-17T08:02:57.833Z,1004
2022-10-17T08:04:13.080Z,1004
2022-10-17T08:05:29.235Z,1024
2022-10-17T08:06:45.465Z,1004
2022-10-17T08:08:01.624Z,1036
2022-10-17T08:09:17.835Z,1064
2022-10-17T08:10:34.024Z,1096
2022-10-17T08:11:50.223Z,1104
2022-10-17T08:13:06.408Z,1132
2022-10-17T08:14:22.564Z,1128
2022-10-17T08:15:38.790Z,1160
2022-10-17T08:16:54.979Z,1188
2022-10-17T08:18:11.154Z,1240
2022-10-17T08:19:27.343Z,1356
2022-10-17T08:20:42.515Z,1488
2022-10-17T08:21:58.748Z,1556
2022-10-17T08:23:14.946Z,1640
2022-10-17T08:24:31.119Z,1736
2022-10-17T08:25:47.275Z,1784
2022-10-17T08:27:03.450Z,1800
2022-10-17T08:28:19.640Z,1732
2022-10-17T08:29:35.889Z,1636
2022-10-17T08:30:52.071Z,1532
2022-10-17T08:32:08.206Z,1388
2022-10-17T08:33:24.450Z,1252
2022-10-17T08:34:40.592Z,1176
2022-10-17T08:35:56.791Z,1084
2022-10-17T08:37:12.041Z,1096
2022-10-17T08:38:28.221Z,1168
2022-10-17T08:39:44.364Z,1220
2022-10-17T08:41:00.602Z,1248
2022-10-17T08:42:16.744Z,1260
2022-10-17T08:43:32.972Z,1296
2022-10-17T08:44:49.166Z,1280
2022-10-17T08:46:05.351Z,1260
2022-10-17T08:47:21.546Z,1276
2022-10-17T08:48:37.739Z,1280
2022-10-17T08:49:53.930Z,1292
2022-10-17T08:51:10.062Z,1308
2022-10-17T08:52:26.242Z,1296
2022-10-17T08:53:41.503Z,1308
2022-10-17T08:54:57.704Z,1320
2022-10-17T08:56:13.885Z,1416
2022-10-17T08:57:30.083Z,1440
2022-10-17T08:58:46.217Z,1452
2022-10-17T09:00:02.392Z,1444
2022-10-17T09:01:18.597Z,1436
2022-10-17T09:02:34.780Z,1436
2022-10-17T09:03:50.976Z,1480
2022-10-17T09:05:07.159Z,1512
2022-10-17T09:06:23.343Z,1508
2022-10-17T09:07:39.587Z,1512
2022-10-17T09:08:55.770Z,1524
2022-10-17T09:10:10.971Z,1528
2022-10-17T09:11:27.125Z,1500
2022-10-17T09:12:43.298Z,1496
2022-10-17T09:13:59.491Z,1476
2022-10-17T09:15:15.745Z,1488
2022-10-17T09:16:31.929Z,1508
2022-10-17T09:17:48.059Z,1532
2022-10-17T09:19:04.311Z,1556
2022-10-17T09:20:20.488Z,1564
2022-10-17T09:21:36.684Z,1568
2022-10-17T09:22:52.875Z,1580
2022-10-17T09:24:09.064Z,1576
2022-10-17T09:25:25.252Z,1644
2022-10-17T09:26:40.439Z,1672
2022-10-17T09:27:56.639Z,1672
2022-10-17T09:29:12.819Z,1664
2022-10-17T09:30:28.951Z,1732
2022-10-17T09:31:45.193Z,1756
2022-10-17T09:33:01.393Z,1776
2022-10-17T09:34:17.571Z,1824
2022-10-17T09:35:33.769Z,2004
2022-10-17T09:36:49.955Z,2060
2022-10-17T09:38:06.128Z,2136
2022-10-17T09:39:22.327Z,2112
2022-10-17T09:40:38.512Z,2236
2022-10-17T09:41:54.628Z,2364
2022-10-17T09:43:09.841Z,2360
2022-10-17T09:44:26.092Z,2332
2022-10-17T09:45:42.277Z,2280
2022-10-17T09:46:58.467Z,2280
2022-10-17T09:48:14.650Z,2256
2022-10-17T09:49:30.844Z,2264
2022-10-17T09:50:47.013Z,2272
2022-10-17T09:52:03.157Z,2300
2022-10-17T09:53:19.325Z,2360
2022-10-17T09:54:35.584Z,2392
2022-10-17T09:55:51.766Z,2500
2022-10-17T09:57:07.961Z,2460
2022-10-17T09:58:24.150Z,2488
2022-10-17T09:59:39.290Z,2648
2022-10-17T10:00:55.538Z,2704
2022-10-17T10:02:11.723Z,2736
2022-10-17T10:03:27.912Z,2748
2022-10-17T10:04:44.037Z,2804
2022-10-17T10:06:00.288Z,2944
2022-10-17T10:07:16.466Z,2964
2022-10-17T10:08:32.599Z,3008
2022-10-17T10:09:48.856Z,3100
2022-10-17T10:11:04.969Z,3192
2022-10-17T10:12:21.228Z,3220
2022-10-17T10:13:37.341Z,3384
2022-10-17T10:14:53.532Z,3676
2022-10-17T10:16:08.792Z,3880
2022-10-17T10:17:24.981Z,4308
2022-10-17T10:18:41.177Z,4612
2022-10-17T10:19:57.288Z,4796
2022-10-17T10:21:13.539Z,4732
2022-10-17T10:22:29.730Z,4776
2022-10-17T10:23:45.847Z,4624
2022-10-17T10:25:02.036Z,4108
2022-10-17T10:26:18.293Z,4656
2022-10-17T10:27:34.484Z,4988
2022-10-17T10:28:50.668Z,3944
2022-10-17T10:30:06.797Z,4668
2022-10-17T10:31:23.052Z,4908
2022-10-17T10:32:38.242Z,4224
2022-10-17T10:33:54.362Z,3648
2022-10-17T10:35:10.627Z,4236
2022-10-17T10:36:26.805Z,4568
2022-10-17T10:37:42.993Z,4464
2022-10-17T10:38:59.187Z,4212
2022-10-17T10:40:15.370Z,3904
2022-10-17T10:41:31.567Z,3928
2022-10-17T10:42:47.749Z,3488
2022-10-17T10:44:03.873Z,3736
2022-10-17T10:45:20.057Z,4284
2022-10-17T10:46:36.245Z,4508
2022-10-17T10:47:52.500Z,4568
2022-10-17T10:49:07.702Z,4752
2022-10-17T10:50:23.897Z,4828
2022-10-17T10:51:40.070Z,5044
2022-10-17T10:52:56.201Z,5240
2022-10-17T10:54:12.444Z,5516
2022-10-17T10:55:28.649Z,5668
2022-10-17T10:56:43.764Z,5704
2022-10-17T10:58:00.033Z,5784
2022-10-17T10:59:16.149Z,4880
2022-10-17T11:00:32.419Z,4716
2022-10-17T11:01:48.598Z,4560
2022-10-17T11:03:04.777Z,5048
2022-10-17T11:04:20.899Z,4816
2022-10-17T11:05:37.162Z,5128
2022-10-17T11:06:53.267Z,5408
2022-10-17T11:08:09.458Z,5464
2022-10-17T11:09:25.717Z,5580
2022-10-17T11:10:41.914Z,5708
2022-10-17T11:11:58.028Z,6084
2022-10-17T11:13:13.220Z,6208
2022-10-17T11:14:29.482Z,6556
2022-10-17T11:15:45.677Z,6920
2022-10-17T11:17:01.853Z,7132
2022-10-17T11:18:18.042Z,7004
2022-10-17T11:19:34.243Z,6808
2022-10-17T11:20:50.343Z,6760
2022-10-17T11:22:06.604Z,6908
2022-10-17T11:23:22.712Z,7092
2022-10-17T11:24:38.901Z,7072
2022-10-17T11:25:55.163Z,7248
2022-10-17T11:27:11.350Z,7548
2022-10-17T11:28:27.543Z,7568
2022-10-17T11:29:42.742Z,7548
2022-10-17T11:30:58.941Z,7608
2022-10-17T11:32:15.038Z,7748
2022-10-17T11:33:31.226Z,8084
2022-10-17T11:34:47.499Z,8736
2022-10-17T11:36:03.695Z,10312
2022-10-17T11:37:19.879Z,24224
2022-10-17T11:38:36.057Z,36544
2022-10-17T11:39:52.254Z,32576
2022-10-17T11:41:08.441Z,34112
2022-10-17T11:42:24.616Z,32128
2022-10-17T11:43:40.816Z,30240
2022-10-17T11:44:56.915Z,26944
2022-10-17T11:46:12.118Z,29952
2022-10-17T11:47:28.403Z,31744
2022-10-17T11:48:44.586Z,32416
2022-10-17T11:50:00.761Z,35232
2022-10-17T11:51:16.949Z,35072
2022-10-17T11:52:33.051Z,35584
2022-10-17T11:53:49.334Z,34048
2022-10-17T11:55:05.511Z,35776
2022-10-17T11:56:21.703Z,36928
2022-10-17T11:57:37.901Z,37120
2022-10-17T11:58:54.079Z,35424
2022-10-17T12:00:10.275Z,29504
2022-10-17T12:01:26.451Z,26976
2022-10-17T12:02:41.656Z,27040
2022-10-17T12:03:57.846Z,31616
2022-10-17T12:05:14.038Z,31776
2022-10-17T12:06:30.212Z,35584
2022-10-17T12:07:46.397Z,44576
2022-10-17T12:09:02.511Z,39136
2022-10-17T12:10:18.785Z,42464
2022-10-17T12:11:34.976Z,44352
2022-10-17T12:12:51.153Z,37024
2022-10-17T12:14:07.246Z,19264
2022-10-17T12:15:23.447Z,30720
2022-10-17T12:16:39.626Z,37664
2022-10-17T12:17:55.901Z,43136
2022-10-17T12:19:11.098Z,51136
2022-10-17T12:20:27.302Z,47136
2022-10-17T12:21:43.477Z,45696
2022-10-17T12:22:59.664Z,52096
2022-10-17T12:24:15.771Z,50464
2022-10-17T12:25:32.045Z,49280
2022-10-17T12:26:48.236Z,39072
2022-10-17T12:28:04.326Z,19488
2022-10-17T12:29:20.618Z,6356
2022-10-17T12:30:36.703Z,4396
2022-10-17T12:31:52.890Z,4452
2022-10-17T12:33:09.177Z,4440
2022-10-17T12:34:25.271Z,3816
2022-10-17T12:35:40.559Z,3532
2022-10-17T12:36:56.753Z,3216
2022-10-17T12:38:12.938Z,3020
2022-10-17T12:39:29.024Z,2852
2022-10-17T12:40:45.305Z,2712
2022-10-17T12:42:01.410Z,2592
2022-10-17T12:43:17.692Z,2380
2022-10-17T12:44:33.780Z,2412
2022-10-17T12:45:50.057Z,2532
2022-10-17T12:47:06.247Z,2660
2022-10-17T12:48:22.435Z,2728
2022-10-17T12:49:38.527Z,2792
2022-10-17T12:50:54.805Z,2844
2022-10-17T12:52:09.904Z,2928
2022-10-17T12:53:26.097Z,2992
2022-10-17T12:54:42.295Z,3024
2022-10-17T12:55:58.578Z,3096
2022-10-17T12:57:14.771Z,3152
2022-10-17T12:58:30.958Z,3252
2022-10-17T12:59:47.000Z,3316
2022-10-17T13:01:03.330Z,3420
2022-10-17T13:02:19.411Z,3480
2022-10-17T13:03:35.694Z,3536
2022-10-17T13:04:51.887Z,3584
2022-10-17T13:06:07.965Z,3600
2022-10-17T13:07:24.163Z,3632
2022-10-17T13:08:39.461Z,3756
2022-10-17T13:09:55.659Z,3928
2022-10-17T13:11:11.834Z,4100
2022-10-17T13:12:28.030Z,4276
2022-10-17T13:13:44.216Z,4400
2022-10-17T13:15:00.398Z,4472
2022-10-17T13:16:16.590Z,4472
2022-10-17T13:17:32.678Z,4412
2022-10-17T13:18:48.959Z,4364
2022-10-17T13:20:05.154Z,4308
2022-10-17T13:21:21.333Z,4280
2022-10-17T13:22:37.424Z,4228
2022-10-17T13:23:53.599Z,4156
2022-10-17T13:25:08.819Z,4100
2022-10-17T13:26:25.100Z,3988
2022-10-17T13:27:41.179Z,3860
2022-10-17T13:28:57.485Z,3704
2022-10-17T13:30:13.554Z,3620
2022-10-17T13:31:29.751Z,3528
2022-10-17T13:32:45.930Z,3472
2022-10-17T13:34:02.225Z,3448
2022-10-17T13:35:18.426Z,3480
2022-10-17T13:36:34.614Z,3508
2022-10-17T13:37:50.685Z,3516
2022-10-17T13:39:06.987Z,3564
2022-10-17T13:40:23.058Z,3448
2022-10-17T13:41:38.374Z,3312
2022-10-17T13:42:54.555Z,3184
2022-10-17T13:44:10.637Z,3092
2022-10-17T13:45:26.937Z,3056
2022-10-17T13:46:43.118Z,3040
2022-10-17T13:47:59.317Z,3076
2022-10-17T13:49:15.389Z,3040
2022-10-17T13:50:31.675Z,2920
2022-10-17T13:51:47.875Z,2908
2022-10-17T13:53:04.063Z,2972
2022-10-17T13:54:20.236Z,2900
2022-10-17T13:55:36.432Z,2808
2022-10-17T13:56:52.615Z,2676
2022-10-17T13:58:07.815Z,2560
2022-10-17T13:59:23.902Z,2464
2022-10-17T14:00:40.094Z,2320
2022-10-17T14:01:56.395Z,2152
2022-10-17T14:03:12.568Z,2092
2022-10-17T14:04:28.763Z,2032
2022-10-17T14:05:44.948Z,1988
2022-10-17T14:07:01.027Z,1980
2022-10-17T14:08:17.199Z,2008
2022-10-17T14:09:33.387Z,2100
2022-10-17T14:10:49.580Z,2184
2022-10-17T14:12:05.879Z,2260
2022-10-17T14:13:22.079Z,2276
2022-10-17T14:14:37.267Z,2208
2022-10-17T14:15:53.470Z,2112
2022-10-17T14:17:09.658Z,2052
2022-10-17T14:18:25.719Z,2000
2022-10-17T14:19:41.897Z,1928
2022-10-17T14:20:58.210Z,1852
2022-10-17T14:23:30.581Z,1676
2022-10-17T14:24:46.771Z,1636
2022-10-17T14:26:02.847Z,1636
2022-10-17T14:27:19.156Z,1656
2022-10-17T14:28:35.333Z,1740
2022-10-17T14:29:51.528Z,1804
2022-10-17T14:31:06.597Z,1832
2022-10-17T14:32:22.926Z,1836
2022-10-17T14:33:38.976Z,1808
2022-10-17T14:34:55.176Z,1748
2022-10-17T14:36:11.469Z,1668
2022-10-17T14:37:27.665Z,1580
2022-10-17T14:38:43.850Z,1516
2022-10-17T14:40:00.043Z,1456
2022-10-17T14:41:16.000Z,1392
2022-10-17T14:42:32.415Z,1348
2022-10-17T14:43:48.604Z,1288
2022-10-17T14:45:04.790Z,1236
2022-10-17T14:46:20.986Z,1176
2022-10-17T14:47:36.177Z,1108
2022-10-17T14:48:52.253Z,1004
2022-10-17T14:50:08.425Z,920
2022-10-17T14:51:24.739Z,856
2022-10-17T14:52:40.923Z,792
2022-10-17T14:53:57.115Z,740
2022-10-17T14:55:13.307Z,700
2022-10-17T14:56:29.371Z,676
2022-10-17T14:57:45.678Z,668
2022-10-17T14:59:01.863Z,676
2022-10-17T15:00:17.927Z,704
2022-10-17T15:01:34.249Z,744
2022-10-17T15:02:50.430Z,796
2022-10-17T15:04:05.509Z,848
2022-10-17T15:05:21.818Z,840
2022-10-17T15:06:38.000Z,812
2022-10-17T15:07:54.195Z,792
2022-10-17T15:09:10.380Z,792
2022-10-17T15:10:26.578Z,784
2022-10-17T15:11:41.640Z,768
2022-10-17T15:12:57.000Z,768
2022-10-17T15:14:14.145Z,764
2022-10-17T15:15:30.349Z,736
2022-10-17T15:16:46.391Z,720
2022-10-17T15:18:02.718Z,720
2022-10-17T15:19:18.766Z,716
2022-10-17T15:20:35.089Z,704
2022-10-17T15:21:51.281Z,692
2022-10-17T15:23:07.463Z,676
2022-10-17T15:24:23.657Z,672
2022-10-17T15:25:39.829Z,680
2022-10-17T15:26:55.897Z,692
2022-10-17T15:28:11.234Z,712
2022-10-17T15:29:27.408Z,724
2022-10-17T15:30:43.599Z,744
2022-10-17T15:31:59.799Z,756
2022-10-17T15:33:15.970Z,756
2022-10-17T15:34:32.032Z,740
2022-10-17T15:35:48.355Z,736
2022-10-17T15:37:04.540Z,704
2022-10-17T15:38:20.595Z,648
2022-10-17T15:39:36.916Z,616
2022-10-17T15:40:53.107Z,548
2022-10-17T15:42:09.292Z,448
2022-10-17T15:43:25.477Z,376
2022-10-17T15:44:41.667Z,324
2022-10-17T15:45:56.862Z,284
2022-10-17T15:47:12.907Z,252
2022-10-17T15:48:29.241Z,228
2022-10-17T15:49:45.289Z,208
2022-10-17T15:51:01.477Z,188
2022-10-17T15:52:17.794Z,172
2022-10-17T15:53:34.000Z,156
2022-10-17T15:54:50.030Z,144
2022-10-17T15:56:06.216Z,132
2022-10-17T15:57:22.558Z,124
2022-10-17T15:58:38.746Z,112
2022-10-17T15:59:54.918Z,100
2022-10-17T16:01:11.110Z,92
2022-10-17T16:02:26.308Z,80
2022-10-17T16:03:42.511Z,72
2022-10-17T16:04:58.700Z,68
2022-10-17T16:06:14.885Z,60
2022-10-17T16:07:31.058Z,52
2022-10-17T16:08:47.250Z,48
2022-10-17T16:10:03.436Z,44
2022-10-17T16:11:19.480Z,40
2022-10-17T16:12:35.670Z,36
2022-10-17T16:13:51.998Z,32
2022-10-17T16:15:08.185Z,28
2022-10-17T16:16:24.386Z,24
2022-10-17T16:17:40.418Z,20
2022-10-17T16:18:55.776Z,20
2022-10-17T16:20:11.802Z,16
2022-10-17T16:21:28.152Z,8
2022-10-17T16:22:44.320Z,8
2022-10-17T16:24:00.527Z,8
2022-10-17T16:25:16.699Z,8
2022-10-17T16:26:32.740Z,4
2022-10-17T16:27:49.073Z,4
2022-10-17T16:29:05.120Z,4
2022-10-17T16:30:21.446Z,4
2022-10-17T16:31:37.640Z,0
2022-10-17T16:32:53.829Z,0
2022-10-17T16:34:10.007Z,0
2022-10-17T16:35:25.217Z,0
2022-10-17T16:36:41.403Z,0
2022-10-17T16:37:57.605Z,0
2022-10-17T16:39:13.789Z,0
2022-10-17T16:40:29.969Z,0
2022-10-17T16:41:46.014Z,0
2022-10-17T16:43:02.197Z,0
2022-10-17T16:44:18.525Z,0
2022-10-17T16:45:34.717Z,0
2022-10-17T16:46:50.910Z,0
2022-10-17T16:48:07.102Z,0
2022-10-17T16:49:23.283Z,0
2022-10-17T16:50:39.324Z,0
2022-10-17T16:51:54.670Z,0
2022-10-17T16:53:10.853Z,0
2022-10-17T16:54:26.897Z,0
2022-10-17T16:55:43.226Z,0
2022-10-17T16:56:59.426Z,0
2022-10-17T16:58:15.455Z,0
2022-10-17T16:59:31.799Z,0
2022-10-17T17:00:47.825Z,0
2022-10-17T17:02:04.024Z,0
2022-10-17T17:03:20.207Z,0
2022-10-17T17:04:36.553Z,0
2022-10-17T17:05:52.576Z,0
2022-10-17T17:07:08.917Z,0
2022-10-17T17:08:24.129Z,0
2022-10-17T17:09:40.146Z,0
2022-10-17T17:10:56.498Z,0
2022-10-17T17:12:12.683Z,0
2022-10-17T17:13:28.881Z,0
2022-10-17T17:14:44.911Z,0
2022-10-17T17:16:01.238Z,0
2022-10-17T17:17:17.441Z,0
2022-10-17T17:18:33.456Z,0
2022-10-17T17:19:49.652Z,0
2022-10-17T17:21:06.002Z,0
2022-10-17T17:22:22.032Z,0
2022-10-17T17:23:38.366Z,0
2022-10-17T17:24:53.570Z,0
2022-10-17T17:26:09.601Z,0
2022-10-17T17:27:25.786Z,0
2022-10-17T17:28:41.976Z,0
2022-10-17T17:29:58.327Z,0
2022-10-17T17:31:14.510Z,0
2022-10-17T17:32:30.699Z,0
2022-10-17T17:33:46.886Z,0
2022-10-17T17:35:03.080Z,0
2022-10-17T17:36:19.257Z,0
2022-10-17T17:37:35.444Z,0
2022-10-17T17:38:51.633Z,0
2022-10-17T17:40:07.825Z,0
2022-10-17T17:41:23.032Z,0
2022-10-17T17:42:39.052Z,0
2022-10-17T17:43:55.408Z,0